Time;durP1;ratioP1;P1;durP2;ratioP2;P2;SDS_P1;SDS_P2;PMS_P1;PMS_P2;Temp;Humidity;BMP_temperature;BMP_pressure;BME280_temperature;BME280_humidity;BME280_pressure;Samples;Min_cycle;Max_cycle;Signal;HPM_P1;HPM_P2
2024/03/30 00:00:10;;;;;;;1.47;1.33;;;10.90;99.90;;;;;;5071666;28;20206;-79
2024/03/30 00:02:36;;;;;;;2.10;1.33;;;10.90;1.00;;;;;;5075600;28;20667;-79
2024/03/30 00:05:03;;;;;;;2.03;1.70;;;10.80;1.00;;;;;;5063867;28;20273;-79
2024/03/30 00:07:30;;;;;;;1.77;1.40;;;10.80;68.70;;;;;;5070248;28;20207;-80
2024/03/30 00:09:57;;;;;;;2.03;1.80;;;10.80;99.90;;;;;;5059196;28;20701;-79
2024/03/30 00:12:23;;;;;;;2.77;1.50;;;10.80;99.90;;;;;;5068068;28;20214;-79
2024/03/30 00:14:51;;;;;;;1.50;1.40;;;10.70;99.90;;;;;;5065621;28;20575;-80
2024/03/30 00:17:17;;;;;;;1.50;1.40;;;10.80;99.90;;;;;;5067525;28;20207;-79
2024/03/30 00:19:44;;;;;;;1.47;1.37;;;10.80;63.20;;;;;;5071820;28;20239;-80
2024/03/30 00:22:10;;;;;;;2.17;1.50;;;10.70;99.90;;;;;;5077182;28;20218;-80
2024/03/30 00:24:38;;;;;;;1.40;1.30;;;10.70;99.90;;;;;;5072293;28;20190;-80
2024/03/30 00:27:04;;;;;;;1.60;1.50;;;10.70;1.00;;;;;;5080058;28;20198;-80
2024/03/30 00:29:31;;;;;;;2.03;1.30;;;10.80;99.90;;;;;;5076646;28;20194;-79
2024/03/30 00:31:57;;;;;;;3.10;1.60;;;10.80;99.90;;;;;;5075156;28;20209;-80
2024/03/30 00:34:24;;;;;;;1.67;1.57;;;10.90;99.90;;;;;;5073216;28;20198;-79
2024/03/30 00:36:50;;;;;;;1.40;1.30;;;10.80;99.90;;;;;;5078810;28;20245;-79
2024/03/30 00:39:17;;;;;;;1.73;1.43;;;10.80;1.00;;;;;;5083966;28;20198;-79
2024/03/30 00:41:44;;;;;;;2.23;1.67;;;10.80;1.00;;;;;;5070631;28;20233;-80
2024/03/30 00:44:11;;;;;;;2.77;1.50;;;10.80;1.00;;;;;;5077732;28;20204;-79
2024/03/30 00:46:37;;;;;;;2.80;1.60;;;10.60;1.00;;;;;;5084590;28;20217;-79
2024/03/30 00:49:04;;;;;;;2.43;1.30;;;10.60;1.00;;;;;;5079133;28;20645;-80
2024/03/30 00:51:30;;;;;;;3.57;1.60;;;10.70;99.90;;;;;;5082209;28;20209;-80
2024/03/30 00:53:57;;;;;;;3.63;1.40;;;10.70;99.90;;;;;;5087088;28;20648;-79
2024/03/30 00:56:22;;;;;;;1.50;1.40;;;10.60;1.00;;;;;;5076739;28;20225;-79
2024/03/30 00:58:51;;;;;;;1.90;1.53;;;10.60;1.00;;;;;;5084021;28;20202;-79
2024/03/30 01:01:17;;;;;;;1.67;1.40;;;10.60;1.00;;;;;;5089640;28;20260;-79
2024/03/30 01:03:44;;;;;;;2.83;1.53;;;10.70;1.00;;;;;;5075402;28;20198;-78
2024/03/30 01:06:10;;;;;;;1.23;1.17;;;10.70;1.00;;;;;;5080572;28;20236;-79
2024/03/30 01:08:37;;;;;;;1.60;1.50;;;10.70;1.00;;;;;;5075338;28;20230;-78
2024/03/30 01:11:04;;;;;;;1.70;1.60;;;10.70;1.00;;;;;;5069908;28;20200;-77
2024/03/30 01:13:31;;;;;;;1.63;1.53;;;10.70;1.00;;;;;;5061129;28;20216;-79
2024/03/30 01:15:59;;;;;;;1.50;1.40;;;10.60;99.90;;;;;;5061352;28;20223;-79
2024/03/30 01:18:27;;;;;;;2.37;1.97;;;10.50;99.90;;;;;;5076793;28;20203;-80
2024/03/30 01:20:53;;;;;;;4.37;1.63;;;10.50;99.90;;;;;;5078770;28;20256;-81
2024/03/30 01:23:21;;;;;;;3.10;1.83;;;10.50;99.90;;;;;;5071659;28;20711;-77
2024/03/30 01:25:49;;;;;;;3.33;1.90;;;10.50;99.90;;;;;;5077868;28;20222;-78
2024/03/30 01:28:16;;;;;;;2.20;1.70;;;10.40;99.90;;;;;;5071598;28;20320;-77
2024/03/30 01:30:43;;;;;;;1.63;1.53;;;10.40;99.90;;;;;;5073724;28;20203;-79
2024/03/30 01:33:12;;;;;;;2.77;2.00;;;10.30;99.90;;;;;;5076667;28;20611;-78
2024/03/30 01:35:38;;;;;;;2.47;1.90;;;10.20;99.90;;;;;;5073191;28;20654;-80
2024/03/30 01:38:05;;;;;;;1.70;1.60;;;10.10;99.90;;;;;;5078533;28;20202;-79
2024/03/30 01:40:32;;;;;;;2.40;2.00;;;10.00;99.90;;;;;;5084092;28;20614;-79
2024/03/30 01:43:01;;;;;;;2.90;1.60;;;10.00;99.90;;;;;;5078846;28;20227;-79
2024/03/30 01:45:32;;;;;;;2.20;2.07;;;9.90;99.90;;;;;;5075635;28;20249;-80
2024/03/30 01:47:59;;;;;;;1.70;1.60;;;9.80;99.90;;;;;;5076333;28;20277;-79
2024/03/30 01:50:28;;;;;;;2.33;2.13;;;9.70;99.90;;;;;;5071489;28;20661;-79
2024/03/30 01:52:55;;;;;;;2.00;1.77;;;9.70;99.90;;;;;;5078584;28;20202;-79
2024/03/30 01:55:21;;;;;;;1.90;1.80;;;9.50;99.90;;;;;;5075113;28;20214;-78
2024/03/30 01:57:48;;;;;;;1.83;1.70;;;9.50;99.90;;;;;;5084842;28;20205;-79
2024/03/30 02:00:14;;;;;;;2.50;2.10;;;9.50;99.90;;;;;;5075005;28;20218;-78
2024/03/30 02:02:42;;;;;;;2.10;1.90;;;9.50;99.90;;;;;;5069556;28;20221;-78
2024/03/30 02:05:08;;;;;;;2.40;2.20;;;9.50;99.90;;;;;;5069683;28;20249;-79
2024/03/30 02:07:37;;;;;;;2.50;2.30;;;9.50;99.90;;;;;;5075879;28;20195;-80
2024/03/30 02:10:03;;;;;;;4.40;2.17;;;9.40;99.90;;;;;;5079721;28;20205;-78
2024/03/30 02:12:31;;;;;;;2.10;1.90;;;9.40;99.90;;;;;;5087225;28;20194;-78
2024/03/30 02:15:00;;;;;;;2.93;2.40;;;9.40;99.90;;;;;;5081303;28;20245;-79
2024/03/30 02:17:27;;;;;;;3.20;2.17;;;9.40;99.90;;;;;;5078988;28;20206;-79
2024/03/30 02:19:57;;;;;;;2.50;2.00;;;9.40;99.90;;;;;;5068754;28;20228;-79
2024/03/30 02:22:24;;;;;;;2.20;2.00;;;9.20;99.90;;;;;;5068521;28;20638;-78
2024/03/30 02:24:51;;;;;;;2.30;2.10;;;9.20;99.90;;;;;;5074748;28;20655;-78
2024/03/30 02:27:18;;;;;;;2.63;2.17;;;9.20;99.90;;;;;;5079484;28;20237;-79
2024/03/30 02:29:49;;;;;;;3.00;2.00;;;9.20;99.90;;;;;;5072527;28;20253;-79
2024/03/30 02:32:17;;;;;;;3.10;1.83;;;9.00;99.90;;;;;;5078801;28;20621;-79
2024/03/30 02:34:43;;;;;;;2.47;1.90;;;9.10;99.90;;;;;;5074202;28;20271;-79
2024/03/30 02:37:11;;;;;;;1.90;1.80;;;9.10;99.90;;;;;;5077103;28;20202;-80
2024/03/30 02:39:37;;;;;;;2.43;2.03;;;8.70;99.90;;;;;;5082323;28;20210;-80
2024/03/30 02:42:05;;;;;;;3.23;2.10;;;8.60;99.90;;;;;;5077291;28;20214;-80
2024/03/30 02:44:31;;;;;;;2.33;2.10;;;8.70;99.90;;;;;;5084271;28;20202;-80
2024/03/30 02:46:59;;;;;;;3.87;2.17;;;8.90;99.90;;;;;;5076202;28;20631;-80
2024/03/30 02:49:25;;;;;;;3.60;2.90;;;9.00;99.90;;;;;;5078592;28;20214;-79
2024/03/30 02:51:51;;;;;;;2.83;2.30;;;9.00;99.90;;;;;;5083459;28;20193;-79
2024/03/30 02:54:17;;;;;;;2.53;2.20;;;8.90;99.90;;;;;;5078944;28;20214;-79
2024/03/30 02:56:44;;;;;;;3.33;2.60;;;8.70;99.90;;;;;;5086699;28;20707;-79
2024/03/30 02:59:12;;;;;;;2.77;2.03;;;8.50;99.90;;;;;;5082112;28;20252;-79
2024/03/30 03:01:39;;;;;;;2.47;2.27;;;8.30;99.90;;;;;;5083671;28;20664;-79
2024/03/30 03:04:05;;;;;;;2.43;2.23;;;8.40;99.90;;;;;;5073041;28;20210;-80
2024/03/30 03:06:32;;;;;;;4.03;2.43;;;8.40;99.90;;;;;;5078971;28;20221;-80
2024/03/30 03:08:58;;;;;;;2.57;2.37;;;8.60;99.90;;;;;;5077649;28;20199;-80
2024/03/30 03:11:25;;;;;;;3.30;2.60;;;8.70;99.90;;;;;;5076898;28;20228;-80
2024/03/30 03:13:51;;;;;;;3.67;2.50;;;8.70;99.90;;;;;;5084836;28;20439;-81
2024/03/30 03:16:20;;;;;;;3.70;2.40;;;8.70;99.90;;;;;;5077445;28;20223;-79
2024/03/30 03:18:46;;;;;;;3.10;2.40;;;8.60;99.90;;;;;;5083071;28;20237;-80
2024/03/30 03:21:13;;;;;;;3.27;2.47;;;8.60;99.90;;;;;;5077883;28;20194;-81
2024/03/30 03:23:40;;;;;;;3.10;2.80;;;8.60;99.90;;;;;;5075957;28;20642;-80
2024/03/30 03:26:07;;;;;;;3.40;3.00;;;8.60;99.90;;;;;;5066068;28;20227;-80
2024/03/30 03:28:33;;;;;;;3.30;2.50;;;8.60;99.90;;;;;;5066966;28;20683;-80
2024/03/30 03:31:00;;;;;;;2.90;2.60;;;8.60;99.90;;;;;;5073414;28;20195;-80
2024/03/30 03:33:27;;;;;;;5.13;3.77;;;8.60;99.90;;;;;;5072979;28;20198;-79
2024/03/30 03:35:55;;;;;;;4.50;3.00;;;8.50;99.90;;;;;;5077720;28;20640;-80
2024/03/30 03:38:21;;;;;;;3.60;3.00;;;8.50;99.90;;;;;;5077770;28;20281;-80
2024/03/30 03:40:48;;;;;;;4.23;3.47;;;8.60;99.90;;;;;;5072875;28;20642;-80
2024/03/30 03:43:14;;;;;;;3.40;3.10;;;8.50;99.90;;;;;;5080641;28;20283;-79
2024/03/30 03:45:45;;;;;;;4.93;3.80;;;8.60;99.90;;;;;;5075025;28;20218;-79
2024/03/30 03:48:11;;;;;;;5.00;3.40;;;8.60;99.90;;;;;;5078385;28;20266;-79
2024/03/30 03:50:40;;;;;;;5.10;3.70;;;8.60;99.90;;;;;;5077039;28;20234;-80
2024/03/30 03:53:06;;;;;;;4.40;3.73;;;8.60;99.90;;;;;;5073325;28;20203;-80
2024/03/30 03:55:33;;;;;;;6.20;3.50;;;8.60;99.90;;;;;;5083624;28;20240;-80
2024/03/30 03:58:00;;;;;;;3.60;3.30;;;8.60;99.90;;;;;;5081291;28;20647;-80
2024/03/30 04:00:27;;;;;;;3.87;3.27;;;8.50;99.90;;;;;;5080018;28;20206;-80
2024/03/30 04:02:53;;;;;;;3.97;3.40;;;8.50;99.90;;;;;;5077196;28;20222;-80
2024/03/30 04:05:21;;;;;;;4.03;3.63;;;8.50;99.90;;;;;;5071658;28;20250;-80
2024/03/30 04:07:50;;;;;;;5.43;3.60;;;8.50;99.90;;;;;;5068640;28;20195;-80
2024/03/30 04:10:18;;;;;;;3.43;3.13;;;8.40;99.90;;;;;;5075585;28;20660;-79
2024/03/30 04:12:44;;;;;;;3.57;3.20;;;8.20;99.90;;;;;;5075362;28;20573;-80
2024/03/30 04:15:11;;;;;;;4.87;3.47;;;8.20;99.90;;;;;;5076410;28;20218;-79
2024/03/30 04:17:37;;;;;;;4.53;3.60;;;8.20;99.90;;;;;;5077883;28;20252;-80
2024/03/30 04:20:05;;;;;;;3.90;3.47;;;8.30;99.90;;;;;;5077936;28;20198;-80
2024/03/30 04:22:31;;;;;;;6.30;4.20;;;8.40;99.90;;;;;;5074357;28;20229;-81
2024/03/30 04:24:59;;;;;;;5.73;3.40;;;8.50;99.90;;;;;;5077009;28;20222;-80
2024/03/30 04:27:25;;;;;;;5.20;3.90;;;8.50;99.90;;;;;;5075154;28;20206;-79
2024/03/30 04:29:52;;;;;;;4.30;3.90;;;8.60;99.90;;;;;;5073401;28;20199;-81
2024/03/30 04:32:18;;;;;;;5.27;4.30;;;8.60;99.90;;;;;;5068675;28;20269;-80
2024/03/30 04:34:46;;;;;;;5.87;4.20;;;8.60;99.90;;;;;;5066403;28;20210;-81
2024/03/30 04:37:13;;;;;;;4.47;3.57;;;8.50;99.90;;;;;;5071163;28;20238;-80
2024/03/30 04:39:41;;;;;;;4.60;3.80;;;8.40;99.90;;;;;;5073372;28;20237;-80
2024/03/30 04:42:10;;;;;;;5.13;3.27;;;8.50;99.90;;;;;;5073611;28;20232;-80
2024/03/30 04:44:37;;;;;;;4.37;3.33;;;8.60;99.90;;;;;;5075052;28;20644;-80
2024/03/30 04:47:04;;;;;;;3.67;3.37;;;8.50;99.90;;;;;;5072988;28;20782;-80
2024/03/30 04:49:31;;;;;;;5.23;3.37;;;8.50;99.90;;;;;;5074120;28;20638;-80
2024/03/30 04:51:56;;;;;;;4.37;3.00;;;8.40;99.90;;;;;;5071323;28;20206;-80
2024/03/30 04:54:23;;;;;;;3.20;2.90;;;8.50;99.90;;;;;;5078947;28;20194;-81
2024/03/30 04:56:49;;;;;;;3.23;2.73;;;8.50;99.90;;;;;;5080822;28;20198;-81
2024/03/30 04:59:18;;;;;;;4.33;3.10;;;8.50;99.90;;;;;;5076163;28;20248;-81
2024/03/30 05:01:44;;;;;;;3.53;3.03;;;8.60;99.90;;;;;;5078544;28;20203;-80
2024/03/30 05:04:10;;;;;;;3.30;3.00;;;8.60;99.90;;;;;;5065054;28;20413;-80
2024/03/30 05:06:36;;;;;;;3.47;2.90;;;8.50;99.90;;;;;;5069118;28;20254;-80
2024/03/30 05:09:03;;;;;;;3.40;3.10;;;8.50;99.90;;;;;;5068438;28;20316;-81
2024/03/30 05:11:29;;;;;;;3.37;2.90;;;8.40;99.90;;;;;;5069971;28;20206;-81
2024/03/30 05:13:56;;;;;;;4.83;3.00;;;8.40;99.90;;;;;;5068866;28;20652;-81
2024/03/30 05:16:24;;;;;;;3.53;3.00;;;8.40;99.90;;;;;;5068611;28;20447;-80
2024/03/30 05:18:51;;;;;;;4.93;3.47;;;8.30;99.90;;;;;;5073642;28;20202;-78
2024/03/30 05:21:17;;;;;;;3.97;3.57;;;8.20;99.90;;;;;;5069554;28;20229;-79
2024/03/30 05:23:47;;;;;;;5.67;3.70;;;8.00;99.90;;;;;;5072511;28;20222;-80
2024/03/30 05:26:13;;;;;;;3.90;2.93;;;8.00;99.90;;;;;;5068022;28;20238;-81
2024/03/30 05:28:40;;;;;;;6.80;3.27;;;8.00;99.90;;;;;;5078324;28;20198;-78
2024/03/30 05:31:10;;;;;;;3.47;3.10;;;8.10;99.90;;;;;;5082750;28;20649;-79
2024/03/30 05:33:38;;;;;;;3.17;2.87;;;8.00;99.90;;;;;;5075727;28;20566;-78
2024/03/30 05:36:04;;;;;;;5.30;3.63;;;8.00;99.90;;;;;;5068246;28;20215;-78
2024/03/30 05:38:31;;;;;;;4.20;3.20;;;8.10;99.90;;;;;;5066376;28;20664;-79
2024/03/30 05:40:57;;;;;;;4.90;3.47;;;8.10;99.90;;;;;;5065347;28;20225;-79
2024/03/30 05:43:24;;;;;;;6.07;3.90;;;8.10;99.90;;;;;;5074689;28;20230;-79
2024/03/30 05:45:57;;;;;;;5.17;3.63;;;8.30;99.90;;;;;;5073275;28;20222;-78
2024/03/30 05:48:24;;;;;;;6.40;3.90;;;8.20;99.90;;;;;;5073206;28;20288;-78
2024/03/30 05:50:51;;;;;;;7.87;4.37;;;8.20;99.90;;;;;;5077491;28;20936;-78
2024/03/30 05:53:18;;;;;;;6.70;4.13;;;8.30;99.90;;;;;;5077298;28;20199;-79
2024/03/30 05:55:48;;;;;;;5.20;4.37;;;8.40;99.90;;;;;;5081459;28;20210;-79
2024/03/30 05:58:15;;;;;;;9.77;4.60;;;8.20;99.90;;;;;;5067537;28;20235;-79
2024/03/30 06:00:41;;;;;;;5.73;4.47;;;8.10;99.90;;;;;;5076477;28;20221;-79
2024/03/30 06:03:08;;;;;;;7.03;4.13;;;8.20;99.90;;;;;;5072828;28;20248;-79
2024/03/30 06:05:34;;;;;;;6.00;3.90;;;8.30;99.90;;;;;;5074396;28;20812;-79
2024/03/30 06:08:03;;;;;;;4.80;3.93;;;8.40;99.90;;;;;;5069589;28;20217;-79
2024/03/30 06:10:31;;;;;;;7.30;4.40;;;8.50;99.90;;;;;;5075573;28;20226;-79
2024/03/30 06:12:58;;;;;;;8.00;4.40;;;8.40;99.90;;;;;;5078208;28;20253;-81
2024/03/30 06:15:24;;;;;;;4.90;4.03;;;8.30;99.90;;;;;;5071860;28;20308;-81
2024/03/30 06:17:50;;;;;;;4.57;3.57;;;8.30;99.90;;;;;;5068138;28;20234;-81
2024/03/30 06:20:17;;;;;;;5.33;4.00;;;8.20;99.90;;;;;;5066450;28;20202;-80
2024/03/30 06:22:45;;;;;;;7.33;4.63;;;8.40;99.90;;;;;;5073108;28;20979;-81
2024/03/30 06:25:13;;;;;;;6.40;4.07;;;8.50;99.90;;;;;;5069603;28;20237;-81
2024/03/30 06:27:40;;;;;;;5.40;4.03;;;8.60;99.90;;;;;;5069930;28;20625;-81
2024/03/30 06:30:07;;;;;;;5.93;4.57;;;8.80;99.90;;;;;;5071276;28;20219;-82
2024/03/30 06:32:34;;;;;;;5.03;4.20;;;9.00;99.90;;;;;;5068500;28;20195;-80
2024/03/30 06:35:00;;;;;;;7.67;4.80;;;8.80;99.90;;;;;;5073468;28;20222;-80
2024/03/30 06:37:27;;;;;;;7.63;4.63;;;8.90;99.90;;;;;;5071624;28;20652;-80
2024/03/30 06:45:24;;;;;;;8.67;4.63;;;9.30;99.90;;;;;;5067019;28;20654;-79
2024/03/30 06:47:52;;;;;;;6.33;4.30;;;9.70;99.90;;;;;;5063585;28;20207;-79
2024/03/30 06:50:19;;;;;;;4.00;3.13;;;10.00;99.90;;;;;;5069899;28;20207;-79
2024/03/30 06:52:45;;;;;;;4.40;4.00;;;10.10;99.90;;;;;;5076867;28;20202;-79
2024/03/30 06:55:12;;;;;;;4.47;3.37;;;10.10;99.90;;;;;;5070781;28;20765;-82
2024/03/30 06:57:40;;;;;;;4.20;3.10;;;10.30;99.90;;;;;;5068489;28;20198;-80
2024/03/30 07:00:09;;;;;;;5.70;3.40;;;10.60;99.90;;;;;;5077776;28;20202;-81
2024/03/30 07:02:35;;;;;;;4.43;2.90;;;10.80;99.90;;;;;;5077743;28;20210;-81
2024/03/30 07:05:02;;;;;;;3.50;2.87;;;10.90;99.90;;;;;;5073017;28;20812;-79
2024/03/30 07:07:30;;;;;;;3.50;2.90;;;11.20;99.90;;;;;;5081014;28;20264;-79
2024/03/30 07:09:57;;;;;;;3.27;2.80;;;11.50;99.90;;;;;;5077551;28;20194;-80
2024/03/30 07:12:23;;;;;;;3.17;2.50;;;11.50;99.90;;;;;;5076283;28;20229;-84
2024/03/30 07:14:52;;;;;;;2.60;2.40;;;11.60;99.90;;;;;;5075217;28;20211;-79
2024/03/30 07:17:18;;;;;;;4.63;2.57;;;11.70;99.90;;;;;;5073907;28;20248;-79
2024/03/30 07:19:45;;;;;;;2.97;2.67;;;11.70;99.90;;;;;;5072277;28;20194;-80
2024/03/30 07:22:10;;;;;;;3.73;2.73;;;11.80;99.90;;;;;;5076039;28;20347;-80
2024/03/30 07:24:37;;;;;;;2.63;2.43;;;11.60;99.90;;;;;;5078072;28;20222;-80
2024/03/30 07:27:04;;;;;;;4.23;3.13;;;11.40;99.90;;;;;;5074343;28;20207;-78
2024/03/30 07:29:33;;;;;;;3.53;2.77;;;11.60;99.90;;;;;;5081607;28;20190;-79
2024/03/30 07:32:00;;;;;;;3.93;2.87;;;11.80;99.90;;;;;;5070598;28;20202;-82
2024/03/30 07:34:27;;;;;;;4.87;3.00;;;11.80;99.90;;;;;;5071950;28;20338;-85
2024/03/30 07:36:53;;;;;;;4.53;3.00;;;12.10;99.90;;;;;;5075236;28;20508;-81
2024/03/30 07:39:20;;;;;;;3.53;3.03;;;12.10;99.90;;;;;;5073321;28;20198;-81
2024/03/30 07:41:46;;;;;;;3.83;2.80;;;12.20;99.90;;;;;;5067403;28;20276;-82
2024/03/30 07:44:13;;;;;;;3.10;2.80;;;12.30;99.90;;;;;;5074619;28;20218;-83
2024/03/30 07:46:39;;;;;;;4.93;3.13;;;12.10;12.80;;;;;;5068044;28;20218;-82
2024/03/30 07:49:07;;;;;;;3.00;2.70;;;12.10;99.90;;;;;;5070948;28;20260;-81
2024/03/30 07:51:33;;;;;;;2.93;2.63;;;12.30;1.00;;;;;;5069830;28;20206;-82
2024/03/30 07:54:00;;;;;;;3.97;2.83;;;12.30;1.00;;;;;;5070016;28;20237;-80
2024/03/30 07:56:26;;;;;;;3.40;2.97;;;12.40;1.00;;;;;;5068119;28;20215;-81
2024/03/30 07:58:53;;;;;;;4.57;3.00;;;12.50;1.00;;;;;;5061691;28;20254;-84
2024/03/30 08:01:19;;;;;;;4.27;2.50;;;12.90;1.00;;;;;;5070650;28;20628;-81
2024/03/30 08:03:46;;;;;;;2.93;2.30;;;13.40;1.00;;;;;;5061084;28;20225;-81
2024/03/30 08:06:13;;;;;;;6.87;2.10;;;13.30;3.00;;;;;;5059304;28;20244;-82
2024/03/30 08:08:40;;;;;;;2.50;2.20;;;13.40;1.00;;;;;;5074247;28;20198;-82
2024/03/30 08:11:06;;;;;;;4.97;2.03;;;13.70;1.00;;;;;;5065765;28;20627;-81
2024/03/30 08:13:33;;;;;;;2.83;2.00;;;14.00;1.00;;;;;;5064428;28;20230;-82
2024/03/30 08:15:59;;;;;;;3.90;2.13;;;14.30;1.00;;;;;;5067446;28;20267;-81
2024/03/30 08:18:26;;;;;;;2.78;1.70;;;14.00;99.90;;;;;;5071830;28;20623;-82
2024/03/30 08:20:51;;;;;;;4.10;1.90;;;14.10;36.40;;;;;;5073119;28;20230;-82
2024/03/30 08:23:21;;;;;;;5.80;2.45;;;14.20;1.00;;;;;;5066802;28;20213;-83
2024/03/30 08:25:48;;;;;;;5.88;2.08;;;14.50;1.00;;;;;;5069079;28;20280;-82
2024/03/30 08:28:15;;;;;;;8.75;2.65;;;14.70;99.90;;;;;;5067983;28;20201;-80
2024/03/30 08:30:41;;;;;;;12.23;2.67;;;14.80;1.00;;;;;;5069755;28;20300;-80
2024/03/30 08:33:07;;;;;;;7.90;1.70;;;15.20;99.90;;;;;;5070961;28;20230;-82
2024/03/30 08:35:33;;;;;;;8.63;1.75;;;15.40;99.90;;;;;;5070431;28;20627;-82
2024/03/30 08:38:00;;;;;;;9.13;1.98;;;15.40;1.00;;;;;;5072168;28;20200;-81
2024/03/30 08:40:29;;;;;;;8.60;2.03;;;15.50;1.00;;;;;;5067731;28;20207;-81
2024/03/30 08:42:56;;;;;;;12.80;2.67;;;15.50;1.00;;;;;;5070000;28;20213;-83
2024/03/30 08:45:22;;;;;;;12.23;2.85;;;15.80;1.00;;;;;;5072242;28;20257;-82
2024/03/30 08:47:48;;;;;;;12.55;2.47;;;16.00;99.90;;;;;;5068859;28;20240;-82
2024/03/30 08:50:16;;;;;;;13.27;2.40;;;16.30;99.90;;;;;;5071940;28;20202;-81
2024/03/30 08:52:43;;;;;;;12.35;2.22;;;16.50;40.80;;;;;;5069008;28;20206;-82
2024/03/30 08:55:09;;;;;;;11.52;2.53;;;16.70;1.00;;;;;;5069901;28;20292;-82
2024/03/30 08:57:37;;;;;;;15.48;3.03;;;17.10;1.00;;;;;;5072081;28;20637;-82
2024/03/30 09:00:07;;;;;;;15.70;2.75;;;17.20;1.00;;;;;;5070356;28;20226;-81
2024/03/30 09:02:36;;;;;;;15.60;2.97;;;17.40;1.00;;;;;;5067879;28;20541;-81
2024/03/30 09:05:02;;;;;;;15.35;3.30;;;17.70;1.00;;;;;;5055265;28;20276;-82
2024/03/30 09:07:29;;;;;;;12.90;3.22;;;17.50;99.90;;;;;;5059196;28;20198;-81
2024/03/30 09:09:55;;;;;;;20.35;3.38;;;17.70;99.90;;;;;;5066201;28;20214;-82
2024/03/30 09:12:22;;;;;;;16.27;3.33;;;17.90;99.90;;;;;;5071401;28;20213;-80
2024/03/30 09:14:50;;;;;;;14.57;2.63;;;17.70;99.90;;;;;;5062053;28;20238;-80
2024/03/30 09:17:17;;;;;;;21.52;3.33;;;17.80;99.90;;;;;;5061322;28;20308;-81
2024/03/30 09:19:43;;;;;;;17.85;3.15;;;17.90;99.90;;;;;;5068630;28;20698;-81
2024/03/30 09:22:10;;;;;;;20.63;3.00;;;18.00;47.00;;;;;;5072555;28;20202;-82
2024/03/30 09:24:36;;;;;;;16.90;3.10;;;18.00;99.90;;;;;;5063409;28;20248;-81
2024/03/30 09:27:03;;;;;;;15.15;2.97;;;17.80;43.80;;;;;;5067298;28;20651;-82
2024/03/30 09:29:29;;;;;;;16.08;3.25;;;17.90;29.10;;;;;;5065564;28;20205;-82
2024/03/30 09:31:59;;;;;;;20.75;3.67;;;18.10;46.70;;;;;;5068516;28;20661;-81
2024/03/30 09:34:25;;;;;;;17.02;3.60;;;18.60;97.00;;;;;;5067664;28;20194;-81
2024/03/30 09:36:52;;;;;;;12.55;2.63;;;18.90;99.90;;;;;;5069668;28;20206;-81
2024/03/30 09:39:18;;;;;;;16.55;3.00;;;18.40;1.00;;;;;;5064261;28;20550;-81
2024/03/30 09:41:50;;;;;;;17.63;3.35;;;18.50;1.00;;;;;;5070238;28;20198;-80
2024/03/30 09:44:16;;;;;;;22.52;3.97;;;18.40;1.00;;;;;;5071205;28;20222;-81
2024/03/30 09:46:44;;;;;;;15.75;3.53;;;18.50;1.00;;;;;;5062384;28;20305;-82
2024/03/30 09:49:14;;;;;;;16.98;3.70;;;18.60;1.00;;;;;;5072984;28;20198;-81
2024/03/30 09:51:43;;;;;;;19.95;3.78;;;18.70;1.00;;;;;;5072273;28;20202;-81
2024/03/30 09:54:11;;;;;;;20.02;3.80;;;18.50;1.00;;;;;;5068241;28;20249;-82
2024/03/30 09:56:42;;;;;;;18.38;3.33;;;18.40;1.00;;;;;;5072582;28;20724;-81
2024/03/30 09:59:10;;;;;;;17.05;3.28;;;18.50;1.00;;;;;;5070775;28;20202;-82
2024/03/30 10:01:37;;;;;;;23.45;3.47;;;18.50;1.00;;;;;;5066111;28;20195;-83
2024/03/30 10:04:03;;;;;;;17.98;3.47;;;18.50;1.00;;;;;;5055004;28;20643;-82
2024/03/30 10:06:41;;;;;;;17.60;4.18;;;18.60;1.00;;;;;;5055160;28;20272;-82
2024/03/30 10:09:12;;;;;;;19.15;4.18;;;18.90;1.00;;;;;;5066583;28;20215;-82
2024/03/30 10:11:40;;;;;;;17.70;3.72;;;18.70;1.00;;;;;;5059746;28;20218;-83
2024/03/30 10:14:15;;;;;;;18.08;3.80;;;18.80;1.00;;;;;;5061471;28;20203;-82
2024/03/30 10:16:44;;;;;;;19.65;3.33;;;19.00;1.00;;;;;;5055510;28;20684;-82
2024/03/30 10:19:13;;;;;;;18.70;3.53;;;18.70;1.00;;;;;;5065640;28;20257;-82
2024/03/30 10:21:42;;;;;;;25.13;3.75;;;18.70;1.00;;;;;;5055309;28;20226;-82
2024/03/30 10:24:08;;;;;;;19.55;4.47;;;18.60;1.00;;;;;;5058279;28;20235;-83
2024/03/30 10:26:38;;;;;;;22.80;6.85;;;18.70;1.00;;;;;;5063334;28;20675;-83
2024/03/30 10:29:05;;;;;;;20.85;4.50;;;18.90;1.00;;;;;;5071158;28;20206;-84
2024/03/30 10:31:32;;;;;;;22.13;3.70;;;18.80;1.00;;;;;;5066965;28;20225;-83
2024/03/30 10:33:58;;;;;;;20.27;3.63;;;18.80;1.00;;;;;;5066241;28;20225;-82
2024/03/30 10:36:27;;;;;;;27.73;5.10;;;18.80;1.00;;;;;;5069218;28;20237;-81
2024/03/30 10:38:56;;;;;;;21.70;4.07;;;18.90;1.00;;;;;;5068668;28;20207;-82
2024/03/30 10:41:26;;;;;;;26.58;4.55;;;18.60;1.00;;;;;;5073821;28;20252;-81
2024/03/30 10:43:54;;;;;;;25.25;5.18;;;18.60;1.00;;;;;;5077254;28;20225;-82
2024/03/30 10:46:21;;;;;;;20.58;4.43;;;18.50;1.00;;;;;;5074919;28;20360;-81
2024/03/30 10:48:47;;;;;;;19.88;3.83;;;18.50;1.00;;;;;;5076750;28;20202;-83
2024/03/30 10:51:14;;;;;;;24.23;4.70;;;18.30;1.00;;;;;;5087431;28;20479;-83
2024/03/30 10:53:40;;;;;;;21.83;3.60;;;18.30;79.80;;;;;;5071613;28;20641;-82
2024/03/30 10:56:09;;;;;;;24.77;4.43;;;18.00;1.00;;;;;;5076977;28;20214;-80
2024/03/30 10:58:36;;;;;;;25.17;4.75;;;18.00;99.90;;;;;;5073156;28;20206;-81
2024/03/30 11:01:05;;;;;;;23.88;4.22;;;18.10;1.00;;;;;;5080037;28;20198;-83
2024/03/30 11:03:31;;;;;;;27.23;4.35;;;18.30;1.00;;;;;;5076138;28;20618;-82
2024/03/30 11:05:59;;;;;;;24.15;5.05;;;18.40;1.00;;;;;;5079630;28;20280;-81
2024/03/30 11:08:26;;;;;;;26.23;5.13;;;18.40;1.00;;;;;;5062700;28;20239;-81
2024/03/30 11:10:56;;;;;;;24.95;5.57;;;18.30;1.00;;;;;;5078166;28;20199;-80
2024/03/30 11:13:23;;;;;;;31.73;5.50;;;18.30;1.00;;;;;;5071075;28;20206;-82
2024/03/30 11:15:53;;;;;;;28.70;5.30;;;18.30;1.00;;;;;;5067854;28;20219;-81
2024/03/30 11:18:26;;;;;;;25.23;4.60;;;18.50;1.00;;;;;;5065614;28;20624;-82
2024/03/30 11:21:00;;;;;;;29.67;4.60;;;18.50;1.00;;;;;;5072543;28;20201;-82
2024/03/30 11:23:36;;;;;;;36.40;6.13;;;18.50;1.00;;;;;;5069252;28;20251;-82
2024/03/30 11:26:09;;;;;;;28.63;5.38;;;18.40;1.00;;;;;;5063302;28;20234;-82
2024/03/30 11:28:48;;;;;;;30.35;4.82;;;18.40;1.00;;;;;;5065890;28;20263;-81
2024/03/30 11:31:22;;;;;;;18.02;4.03;;;18.50;1.00;;;;;;5064890;28;20202;-83
2024/03/30 11:33:57;;;;;;;26.25;5.25;;;18.50;1.00;;;;;;5064645;28;20210;-83
2024/03/30 11:36:32;;;;;;;27.95;5.28;;;18.40;1.00;;;;;;5077502;28;20226;-81
2024/03/30 11:39:10;;;;;;;23.13;4.85;;;18.10;1.00;;;;;;5070089;28;20280;-81
2024/03/30 11:41:39;;;;;;;23.17;4.53;;;17.90;80.20;;;;;;5067388;28;20628;-81
2024/03/30 11:44:09;;;;;;;31.17;5.53;;;17.70;99.90;;;;;;5066127;28;20211;-81
2024/03/30 11:46:41;;;;;;;22.90;4.95;;;17.50;99.90;;;;;;5072596;28;20225;-82
2024/03/30 11:49:08;;;;;;;32.75;6.38;;;17.50;99.90;;;;;;5076269;28;20212;-81
2024/03/30 11:51:40;;;;;;;33.05;5.85;;;17.60;99.90;;;;;;5076836;28;20206;-82
2024/03/30 11:54:19;;;;;;;35.80;5.68;;;17.50;99.90;;;;;;5072019;28;20244;-82
2024/03/30 11:56:55;;;;;;;34.05;5.57;;;17.40;99.90;;;;;;5071159;28;20216;-81
2024/03/30 11:59:23;;;;;;;36.42;5.13;;;17.50;99.90;;;;;;5072977;28;20651;-81
2024/03/30 12:01:50;;;;;;;33.83;5.47;;;17.40;99.90;;;;;;5078483;28;20599;-82
2024/03/30 12:04:19;;;;;;;37.67;5.90;;;17.50;99.90;;;;;;5069905;28;20219;-81
2024/03/30 12:06:46;;;;;;;33.13;5.30;;;17.70;99.90;;;;;;5076290;28;20275;-84
2024/03/30 12:09:54;;;;;;;35.30;6.82;;;17.80;99.90;;;;;;5076359;28;20210;-83
2024/03/30 12:16:43;;;;;;;33.88;5.00;;;17.70;11.10;;;;;;4926737;28;20239;-83
2024/03/30 12:36:54;;;;;;;27.65;5.13;;;17.30;99.90;;;;;;4981167;28;20727;-82
2024/03/30 12:42:50;;;;;;;30.10;6.28;;;17.80;1.00;;;;;;4983831;28;20266;-82
2024/03/30 12:45:16;;;;;;;31.13;6.53;;;17.80;1.00;;;;;;5049485;28;20269;-83
2024/03/30 12:47:43;;;;;;;27.95;5.07;;;17.80;1.00;;;;;;5066035;28;20202;-82
2024/03/30 12:50:09;;;;;;;23.15;4.20;;;17.60;99.90;;;;;;5066752;28;20240;-81
2024/03/30 12:52:38;;;;;;;16.70;4.10;;;17.20;21.50;;;;;;5061499;28;20246;-80
2024/03/30 12:55:04;;;;;;;19.27;4.15;;;17.10;1.00;;;;;;5070168;28;20218;-81
2024/03/30 12:57:32;;;;;;;23.38;3.88;;;17.10;1.00;;;;;;5061572;28;20218;-78
2024/03/30 13:00:00;;;;;;;18.85;4.30;;;17.10;99.90;;;;;;5069846;28;20270;-84
2024/03/30 13:02:27;;;;;;;21.30;4.00;;;17.10;1.00;;;;;;5071147;28;20199;-84
2024/03/30 13:04:53;;;;;;;23.75;4.40;;;17.30;1.00;;;;;;5066912;28;20257;-84
2024/03/30 13:07:20;;;;;;;18.35;3.78;;;17.40;99.90;;;;;;5071039;28;20190;-85
2024/03/30 13:09:48;;;;;;;25.00;4.50;;;17.50;99.90;;;;;;5075577;28;20203;-83
2024/03/30 13:12:17;;;;;;;18.67;4.38;;;17.50;99.90;;;;;;5068499;28;20694;-84
2024/03/30 13:14:43;;;;;;;19.58;4.18;;;17.30;99.90;;;;;;5061319;28;20242;-82
2024/03/30 13:17:11;;;;;;;16.38;4.15;;;17.30;1.00;;;;;;5064536;28;20202;-82
2024/03/30 13:19:38;;;;;;;19.80;4.53;;;17.20;1.00;;;;;;5072021;28;20210;-84
2024/03/30 13:22:10;;;;;;;20.55;4.18;;;17.20;1.00;;;;;;5071611;28;20265;-83